Time;durP1;ratioP1;P1;durP2;ratioP2;P2;SDS_P1;SDS_P2;PMS_P1;PMS_P2;Temp;Humidity;BMP_temperature;BMP_pressure;BME280_temperature;BME280_humidity;BME280_pressure;Samples;Min_cycle;Max_cycle;Signal;HPM_P1;HPM_P2
2021/07/26 00:00:29;;;;;;;6.15;3.70;;;;;;;20.46;68.72;96718.69;5029155;28;20025;-81
2021/07/26 00:02:54;;;;;;;3.80;3.45;;;;;;;20.40;68.93;96718.06;5011534;28;20041;-82
2021/07/26 00:05:19;;;;;;;4.72;3.90;;;;;;;20.42;69.04;96727.56;5001308;28;20041;-82
2021/07/26 00:07:45;;;;;;;4.38;3.97;;;;;;;20.39;69.13;96726.31;5017693;28;20030;-81
2021/07/26 00:10:10;;;;;;;4.18;3.78;;;;;;;20.32;69.51;96720.78;5010312;28;20113;-81
2021/07/26 00:12:36;;;;;;;4.95;3.78;;;;;;;20.35;69.60;96726.19;5008724;28;20033;-82
2021/07/26 00:15:05;;;;;;;3.90;3.50;;;;;;;20.40;69.34;96725.25;5042453;28;20037;-82
2021/07/26 00:17:30;;;;;;;4.13;3.72;;;;;;;20.34;69.17;96703.50;5009486;28;20034;-81
2021/07/26 00:19:56;;;;;;;3.60;3.30;;;;;;;20.38;69.29;96709.69;5001166;28;20041;-81
2021/07/26 00:22:21;;;;;;;4.40;4.00;;;;;;;20.47;69.09;96736.09;5008704;28;20033;-81
2021/07/26 00:24:46;;;;;;;4.97;3.63;;;;;;;20.42;69.22;96727.56;5007734;28;20026;-81
2021/07/26 00:27:12;;;;;;;4.93;4.10;;;;;;;20.40;69.18;96731.31;5023374;28;20038;-82
2021/07/26 00:29:37;;;;;;;4.35;3.60;;;;;;;20.35;69.27;96723.56;5043771;28;20448;-82
2021/07/26 00:32:03;;;;;;;4.60;3.60;;;;;;;20.28;69.20;96722.50;5012095;28;20055;-82
2021/07/26 00:34:29;;;;;;;4.70;3.95;;;;;;;20.39;69.12;96739.53;5044641;28;20051;-82
2021/07/26 00:36:56;;;;;;;3.88;3.47;;;;;;;20.26;68.83;96732.63;5026728;28;20044;-81
2021/07/26 00:39:23;;;;;;;6.38;3.80;;;;;;;20.25;69.08;96733.72;4990709;28;20076;-82
2021/07/26 00:41:50;;;;;;;4.30;3.42;;;;;;;20.21;69.02;96723.78;5007526;28;20496;-81
2021/07/26 00:44:16;;;;;;;3.38;3.08;;;;;;;20.22;69.20;96732.50;4991627;28;20183;-82
2021/07/26 00:46:43;;;;;;;4.38;3.75;;;;;;;20.19;69.04;96725.97;5007837;28;20039;-82
2021/07/26 00:49:10;;;;;;;4.45;3.80;;;;;;;20.16;69.36;96731.88;5021188;28;20021;-82
2021/07/26 00:51:36;;;;;;;5.70;3.80;;;;;;;20.06;69.39;96720.88;5013340;28;20484;-81
2021/07/26 00:54:02;;;;;;;5.03;3.55;;;;;;;20.09;69.68;96726.31;5007767;28;20045;-81
2021/07/26 00:56:27;;;;;;;4.30;3.80;;;;;;;20.13;69.77;96731.75;5024390;28;20042;-81
2021/07/26 00:58:53;;;;;;;5.85;3.58;;;;;;;20.10;69.76;96730.53;5033988;28;20031;-81
2021/07/26 01:01:18;;;;;;;5.22;3.15;;;;;;;19.99;69.58;96705.53;5007800;28;20036;-81
2021/07/26 01:03:44;;;;;;;5.15;3.75;;;;;;;20.06;69.96;96723.53;5025433;28;20037;-81
2021/07/26 01:06:11;;;;;;;3.95;3.53;;;;;;;20.02;69.41;96720.75;5028408;28;20032;-82
2021/07/26 01:08:36;;;;;;;4.00;3.60;;;;;;;20.07;69.75;96730.38;4979925;28;20022;-81
2021/07/26 01:11:08;;;;;;;4.03;3.63;;;;;;;19.96;69.49;96732.56;4994178;28;20048;-82
2021/07/26 01:13:35;;;;;;;4.13;3.40;;;;;;;20.04;69.55;96728.38;4994472;28;20080;-82
2021/07/26 01:16:00;;;;;;;5.25;4.03;;;;;;;20.01;69.41;96725.28;4997402;28;20140;-81
2021/07/26 01:18:33;;;;;;;4.55;3.75;;;;;;;20.01;69.47;96725.28;4997817;28;20294;-82
2021/07/26 01:21:00;;;;;;;5.40;3.80;;;;;;;20.00;69.51;96726.34;5014352;28;20035;-82
2021/07/26 01:23:28;;;;;;;6.03;3.80;;;;;;;20.10;69.49;96742.94;5030809;28;20072;-82
2021/07/26 01:25:53;;;;;;;4.05;3.42;;;;;;;20.17;69.51;96748.53;4995180;28;20044;-82
2021/07/26 01:28:21;;;;;;;4.72;3.65;;;;;;;20.18;69.22;96745.53;5014780;28;20033;-82
2021/07/26 01:30:48;;;;;;;4.05;3.67;;;;;;;20.19;69.27;96747.09;5036680;28;20428;-82
2021/07/26 01:33:15;;;;;;;6.15;3.45;;;;;;;20.23;68.99;96755.19;5025348;28;20105;-82
2021/07/26 01:35:40;;;;;;;4.80;3.50;;;;;;;20.23;69.12;96747.25;5012966;28;20036;-81
2021/07/26 01:38:07;;;;;;;5.40;3.70;;;;;;;20.20;68.86;96753.97;5016717;28;20392;-81
2021/07/26 01:40:36;;;;;;;6.40;4.30;;;;;;;20.23;69.00;96755.19;5010317;28;20030;-82
2021/07/26 01:43:03;;;;;;;5.32;3.33;;;;;;;20.23;68.82;96749.13;5030996;28;20064;-82
2021/07/26 01:45:32;;;;;;;3.90;3.45;;;;;;;20.17;68.91;96759.09;5013665;28;20041;-82
2021/07/26 01:48:10;;;;;;;4.18;3.25;;;;;;;20.17;69.15;96764.41;5017302;28;20036;-82
2021/07/26 01:50:40;;;;;;;4.25;3.42;;;;;;;20.12;69.00;96761.91;5028462;28;20029;-82
2021/07/26 01:53:06;;;;;;;4.57;3.65;;;;;;;20.19;69.07;96762.97;5014097;28;20480;-81
2021/07/26 01:55:33;;;;;;;4.75;3.78;;;;;;;20.19;68.84;96754.28;5029838;28;20064;-82
2021/07/26 01:57:58;;;;;;;4.32;3.78;;;;;;;20.16;69.04;96757.53;5039802;28;20057;-81
2021/07/26 02:00:24;;;;;;;4.97;3.75;;;;;;;20.17;69.09;96767.03;5016159;28;20091;-81
2021/07/26 02:02:49;;;;;;;3.83;3.42;;;;;;;20.07;69.36;96756.81;5013067;28;20033;-82
2021/07/26 02:05:15;;;;;;;4.97;3.45;;;;;;;20.07;69.27;96756.81;5012685;28;20029;-81
2021/07/26 02:07:40;;;;;;;4.63;3.50;;;;;;;20.03;69.44;96759.28;5012716;28;20108;-82
2021/07/26 02:10:06;;;;;;;5.25;3.75;;;;;;;19.97;69.51;96750.00;5012505;28;20037;-81
2021/07/26 02:12:31;;;;;;;5.57;3.75;;;;;;;19.95;69.23;96752.94;5039589;28;20033;-81
2021/07/26 02:14:59;;;;;;;4.72;4.28;;;;;;;19.98;69.45;96762.88;5012875;28;20072;-82
2021/07/26 02:17:24;;;;;;;3.63;3.28;;;;;;;19.98;69.28;96762.88;5045276;28;20033;-82
2021/07/26 02:19:50;;;;;;;4.60;3.22;;;;;;;19.97;69.47;96776.41;4995634;28;20040;-81
2021/07/26 02:22:15;;;;;;;3.97;3.58;;;;;;;19.93;69.64;96763.06;5012575;28;20032;-82
2021/07/26 02:24:40;;;;;;;5.93;3.17;;;;;;;19.90;69.34;96763.69;5029364;28;20103;-81
2021/07/26 02:27:06;;;;;;;4.07;3.65;;;;;;;19.82;69.55;96756.53;5027584;28;20484;-82
2021/07/26 02:29:34;;;;;;;3.75;3.30;;;;;;;19.75;69.86;96758.91;5008749;28;20412;-82
2021/07/26 02:32:00;;;;;;;5.25;3.80;;;;;;;19.79;69.54;96760.59;5025874;28;20029;-82
2021/07/26 02:34:25;;;;;;;4.75;3.35;;;;;;;19.82;69.60;96764.47;5009169;28;20028;-82
2021/07/26 02:36:50;;;;;;;3.47;3.00;;;;;;;19.83;69.51;96771.31;5008949;28;20139;-82
2021/07/26 02:39:18;;;;;;;5.75;4.00;;;;;;;19.73;69.36;96767.09;4992271;28;20129;-82
2021/07/26 02:41:43;;;;;;;5.07;3.63;;;;;;;19.67;69.44;96773.63;5025428;28;20029;-82
2021/07/26 02:44:09;;;;;;;5.25;3.60;;;;;;;19.65;69.22;96762.59;5009144;28;20030;-82
2021/07/26 02:46:35;;;;;;;4.78;3.40;;;;;;;19.67;69.33;96773.63;5028873;28;20037;-82
2021/07/26 02:49:00;;;;;;;4.07;3.67;;;;;;;19.60;69.30;96771.50;5028675;28;20484;-82
2021/07/26 02:51:25;;;;;;;5.35;3.97;;;;;;;19.54;69.27;96761.38;5028271;28;20427;-81
2021/07/26 02:53:51;;;;;;;3.55;3.25;;;;;;;19.52;69.92;96766.97;5011962;28;20041;-82
2021/07/26 02:56:16;;;;;;;5.70;3.70;;;;;;;19.54;69.30;96783.28;5010064;28;20076;-82
2021/07/26 02:58:42;;;;;;;4.63;3.67;;;;;;;19.42;69.56;96768.06;5009001;28;20038;-82
2021/07/26 03:01:11;;;;;;;4.00;3.40;;;;;;;19.38;69.73;96779.56;5006621;28;20026;-82
2021/07/26 03:03:37;;;;;;;5.18;3.78;;;;;;;19.52;69.68;96788.09;5008708;28;20096;-82
2021/07/26 03:06:03;;;;;;;4.20;3.50;;;;;;;19.52;69.72;96782.81;4998707;28;20026;-82
2021/07/26 03:08:30;;;;;;;4.30;3.28;;;;;;;19.49;69.69;96780.81;5024910;28;20037;-82
2021/07/26 03:11:03;;;;;;;3.90;3.50;;;;;;;19.33;70.03;96787.63;5026432;28;20052;-82
2021/07/26 03:13:29;;;;;;;3.50;3.20;;;;;;;19.48;69.81;96787.16;5044696;28;20075;-82
2021/07/26 03:15:54;;;;;;;4.45;3.30;;;;;;;19.48;69.84;96783.75;5028576;28;20037;-82
2021/07/26 03:18:20;;;;;;;4.80;3.80;;;;;;;19.55;69.70;96792.78;5043162;28;20542;-82
2021/07/26 03:20:49;;;;;;;5.22;3.38;;;;;;;19.44;69.79;96783.59;5026888;28;20534;-82
2021/07/26 03:23:14;;;;;;;4.13;3.72;;;;;;;19.47;69.69;96782.97;5011513;28;20029;-82
2021/07/26 03:25:41;;;;;;;4.03;3.33;;;;;;;19.43;69.86;96790.75;5011601;28;20387;-82
2021/07/26 03:28:07;;;;;;;4.72;3.60;;;;;;;19.44;69.77;96789.66;5011521;28;20092;-82
2021/07/26 03:30:33;;;;;;;5.25;2.92;;;;;;;19.43;69.97;96801.31;5027755;28;20029;-82
2021/07/26 03:32:59;;;;;;;3.95;3.50;;;;;;;19.38;69.88;96785.63;5024698;28;20041;-82
2021/07/26 03:35:24;;;;;;;5.80;3.15;;;;;;;19.37;69.79;96796.50;5013300;28;20033;-82
2021/07/26 03:37:51;;;;;;;5.28;3.33;;;;;;;19.27;69.26;96787.78;5027451;28;20025;-82
2021/07/26 03:40:17;;;;;;;3.88;3.47;;;;;;;19.31;69.88;96795.09;5024731;28;20438;-82
2021/07/26 03:42:43;;;;;;;4.45;3.60;;;;;;;19.25;70.02;96792.59;5025581;28;20448;-82
2021/07/26 03:45:10;;;;;;;5.07;3.33;;;;;;;19.19;69.74;96791.22;5008122;28;20113;-82
2021/07/26 03:47:36;;;;;;;4.50;3.67;;;;;;;19.16;69.81;96791.81;5005015;28;20049;-82
2021/07/26 03:50:02;;;;;;;3.80;3.40;;;;;;;19.18;69.67;96794.94;5010654;28;20087;-82
2021/07/26 03:52:27;;;;;;;4.75;3.28;;;;;;;19.18;69.71;96802.84;5010015;28;20042;-82
2021/07/26 03:54:56;;;;;;;4.20;3.63;;;;;;;19.02;69.95;96796.44;5022262;28;20083;-83
2021/07/26 03:57:22;;;;;;;4.55;3.60;;;;;;;19.10;69.79;96793.06;5027171;28;20159;-82
2021/07/26 03:59:48;;;;;;;3.90;3.22;;;;;;;19.06;69.98;96795.53;5027775;28;20140;-82
2021/07/26 04:02:13;;;;;;;5.00;3.63;;;;;;;19.04;70.11;96792.44;5019026;28;20033;-82
2021/07/26 04:04:39;;;;;;;4.70;3.20;;;;;;;18.95;69.81;96791.63;5011089;28;20037;-83
2021/07/26 04:07:09;;;;;;;4.45;3.42;;;;;;;19.07;69.92;96796.31;5026572;28;20112;-83
2021/07/26 04:09:42;;;;;;;4.43;3.20;;;;;;;19.04;69.95;96794.31;5043091;28;20511;-82
2021/07/26 04:12:12;;;;;;;3.90;3.45;;;;;;;18.94;70.00;96778.75;5004378;28;20026;-83
2021/07/26 04:14:41;;;;;;;4.10;3.25;;;;;;;19.03;70.13;96798.00;5029333;28;20029;-82
2021/07/26 04:17:07;;;;;;;4.47;3.28;;;;;;;19.05;70.08;96809.03;5010855;28;20124;-82
2021/07/26 04:19:32;;;;;;;4.65;3.35;;;;;;;18.94;69.95;96784.03;5011193;28;20112;-83
2021/07/26 04:21:58;;;;;;;5.35;3.80;;;;;;;19.05;70.14;96809.03;5043773;28;20026;-82
2021/07/26 04:24:24;;;;;;;3.15;2.85;;;;;;;19.05;70.21;96807.16;5027620;28;20030;-82
2021/07/26 04:26:49;;;;;;;4.88;3.72;;;;;;;19.02;70.18;96799.09;5027694;28;20036;-82
2021/07/26 04:29:15;;;;;;;3.95;3.47;;;;;;;19.08;70.06;96805.78;5010736;28;20028;-82
2021/07/26 04:31:41;;;;;;;5.47;3.65;;;;;;;19.05;69.93;96790.56;5028041;28;20036;-82
2021/07/26 04:34:07;;;;;;;5.20;3.28;;;;;;;19.14;70.13;96798.47;5014691;28;20083;-82
2021/07/26 04:36:32;;;;;;;3.70;3.35;;;;;;;19.15;69.97;96798.19;5030752;28;20116;-82
2021/07/26 04:38:57;;;;;;;5.88;3.63;;;;;;;19.22;69.83;96798.50;5030685;28;20041;-82
2021/07/26 04:41:23;;;;;;;5.95;3.22;;;;;;;19.22;69.75;96803.78;5031283;28;20033;-82
2021/07/26 04:43:48;;;;;;;6.07;3.47;;;;;;;19.20;69.69;96787.47;5015586;28;20036;-82
2021/07/26 04:46:13;;;;;;;6.65;3.50;;;;;;;19.23;69.82;96801.94;5041583;28;20108;-82
2021/07/26 04:48:39;;;;;;;4.93;3.88;;;;;;;19.31;69.93;96814.34;5015467;28;20029;-82
2021/07/26 04:51:04;;;;;;;4.55;3.50;;;;;;;19.27;70.00;96800.97;5031003;28;20056;-82
2021/07/26 04:53:34;;;;;;;5.18;3.70;;;;;;;19.31;69.86;96809.06;4992249;28;20029;-82
2021/07/26 04:56:00;;;;;;;4.18;3.47;;;;;;;19.49;69.93;96809.84;5015737;28;20025;-82
2021/07/26 04:58:25;;;;;;;5.97;3.80;;;;;;;19.48;69.62;96792.44;5023848;28;20087;-82
2021/07/26 05:00:50;;;;;;;7.82;3.63;;;;;;;19.59;69.78;96798.97;4997379;28;20029;-82
2021/07/26 05:03:16;;;;;;;3.50;3.15;;;;;;;19.67;69.54;96788.72;5013709;28;20040;-82
2021/07/26 05:05:41;;;;;;;3.85;3.35;;;;;;;19.84;69.43;96799.28;5013814;28;20184;-82
2021/07/26 05:08:07;;;;;;;3.88;3.47;;;;;;;19.98;69.17;96813.09;5013331;28;20091;-82
2021/07/26 05:10:32;;;;;;;5.00;3.10;;;;;;;20.01;68.87;96791.34;5029089;28;20037;-81
2021/07/26 05:12:58;;;;;;;4.95;3.50;;;;;;;20.08;68.42;96796.13;5030416;28;20052;-82
2021/07/26 05:15:23;;;;;;;3.47;3.17;;;;;;;20.26;67.32;96799.50;5030294;28;20061;-82
2021/07/26 05:17:49;;;;;;;3.50;3.05;;;;;;;20.25;67.62;96792.63;5027830;28;20511;-81
2021/07/26 05:20:15;;;;;;;5.63;3.72;;;;;;;20.34;67.55;96806.63;5045434;28;20080;-81
2021/07/26 05:22:40;;;;;;;3.80;3.40;;;;;;;20.38;67.40;96801.47;5029287;28;20028;-81
2021/07/26 05:25:07;;;;;;;3.78;3.38;;;;;;;20.43;67.37;96808.47;5045787;28;20037;-81
2021/07/26 05:27:33;;;;;;;3.80;2.97;;;;;;;20.42;67.46;96805.03;5029171;28;20150;-81
2021/07/26 05:29:58;;;;;;;4.43;3.20;;;;;;;20.49;67.66;96804.53;5025503;28;20045;-81
2021/07/26 05:32:24;;;;;;;5.15;3.13;;;;;;;20.50;67.83;96811.38;5045045;28;20045;-81
2021/07/26 05:34:49;;;;;;;4.15;3.30;;;;;;;20.52;67.51;96811.84;5013742;28;20026;-81
2021/07/26 05:37:16;;;;;;;3.88;3.17;;;;;;;20.54;67.51;96822.88;5046159;28;20029;-81
2021/07/26 05:39:42;;;;;;;4.38;3.47;;;;;;;20.53;67.31;96824.75;5013396;28;20550;-81
2021/07/26 05:42:10;;;;;;;5.30;3.05;;;;;;;20.55;67.67;96821.78;5026995;28;20029;-81
2021/07/26 05:44:42;;;;;;;4.20;3.53;;;;;;;20.48;68.13;96817.00;5014803;28;20037;-81
2021/07/26 05:47:08;;;;;;;6.65;3.70;;;;;;;20.71;67.42;96825.47;5027024;28;20037;-81
2021/07/26 05:49:34;;;;;;;5.95;3.63;;;;;;;20.80;67.21;96816.72;5008859;28;20036;-81
2021/07/26 05:51:59;;;;;;;4.57;3.53;;;;;;;20.84;67.32;96815.78;5010270;28;20033;-82
2021/07/26 05:54:25;;;;;;;4.03;3.30;;;;;;;20.94;67.37;96812.00;5025055;28;20040;-81
2021/07/26 05:56:50;;;;;;;5.80;4.22;;;;;;;21.04;66.94;96821.41;5009411;28;20033;-81
2021/07/26 05:59:16;;;;;;;5.60;3.40;;;;;;;21.12;65.77;96821.34;5012122;28;20057;-82
2021/07/26 06:01:48;;;;;;;3.75;3.40;;;;;;;21.29;65.52;96828.41;5008315;28;20049;-80
2021/07/26 06:04:15;;;;;;;3.83;3.22;;;;;;;21.40;64.71;96833.31;4993263;28;20034;-80
2021/07/26 06:06:42;;;;;;;4.35;3.50;;;;;;;21.40;65.33;96823.50;5011027;28;20088;-80
2021/07/26 06:09:09;;;;;;;4.53;3.47;;;;;;;21.39;64.92;96821.97;5007143;28;20639;-80
2021/07/26 06:11:35;;;;;;;4.75;3.55;;;;;;;21.47;64.94;96825.66;5043965;28;20034;-80
2021/07/26 06:14:01;;;;;;;3.70;3.13;;;;;;;21.51;64.60;96832.63;5013454;28;20060;-80
2021/07/26 06:16:28;;;;;;;5.53;3.47;;;;;;;21.48;64.87;96835.16;5041780;28;20048;-80
2021/07/26 06:18:54;;;;;;;4.03;3.40;;;;;;;21.51;65.31;96830.00;5043218;28;20109;-80
2021/07/26 06:21:20;;;;;;;3.47;2.95;;;;;;;21.69;64.88;96835.94;5045921;28;20124;-80
2021/07/26 06:23:46;;;;;;;3.85;3.45;;;;;;;21.91;64.36;96841.97;5027392;28;20021;-80
2021/07/26 06:26:11;;;;;;;4.10;3.35;;;;;;;21.84;64.46;96836.44;5024689;28;20041;-80
2021/07/26 06:28:39;;;;;;;3.50;2.90;;;;;;;21.79;64.20;96834.75;5016769;28;20022;-81
2021/07/26 06:31:06;;;;;;;3.28;2.97;;;;;;;22.04;63.07;96843.56;5012126;28;20417;-81
2021/07/26 06:33:32;;;;;;;3.45;3.10;;;;;;;22.34;61.84;96842.66;5028354;28;20732;-81
2021/07/26 06:35:57;;;;;;;3.45;3.00;;;;;;;22.54;60.98;96833.84;4995907;28;20029;-81
2021/07/26 06:38:23;;;;;;;3.95;2.92;;;;;;;22.73;60.61;96825.34;5041659;28;20029;-81
2021/07/26 06:40:48;;;;;;;4.90;3.53;;;;;;;23.00;60.80;96845.13;5012472;28;20376;-81
2021/07/26 06:43:15;;;;;;;3.47;3.10;;;;;;;23.25;59.95;96841.69;5022756;28;20045;-81
2021/07/26 06:45:40;;;;;;;4.93;2.83;;;;;;;23.54;57.98;96840.63;5010713;28;20034;-81
2021/07/26 06:48:07;;;;;;;4.05;2.85;;;;;;;23.86;57.61;96846.09;5040182;28;20481;-81
2021/07/26 06:50:32;;;;;;;4.35;3.13;;;;;;;23.96;57.49;96842.94;5045154;28;20061;-81
2021/07/26 06:52:58;;;;;;;4.13;3.03;;;;;;;24.13;57.59;96847.19;5029749;28;20072;-81
2021/07/26 06:55:23;;;;;;;5.10;3.33;;;;;;;24.37;56.26;96846.25;4996872;28;20476;-81
2021/07/26 06:57:48;;;;;;;3.72;3.35;;;;;;;24.65;54.53;96856.06;5006859;28;20065;-81
2021/07/26 07:00:14;;;;;;;4.63;3.17;;;;;;;24.69;55.09;96851.59;5012186;28;20036;-82
2021/07/26 07:02:40;;;;;;;4.15;3.15;;;;;;;24.71;55.57;96859.25;5029032;28;20060;-81
2021/07/26 07:05:05;;;;;;;3.38;2.88;;;;;;;24.85;54.85;96859.59;5028802;28;20064;-81
2021/07/26 07:07:31;;;;;;;4.32;3.72;;;;;;;24.97;55.73;96853.41;5012157;28;20021;-81
2021/07/26 07:09:56;;;;;;;3.97;3.58;;;;;;;25.00;54.49;96858.78;5029162;28;20060;-81
2021/07/26 07:12:22;;;;;;;3.50;3.10;;;;;;;25.19;53.43;96859.94;5045299;28;20041;-81
2021/07/26 07:14:47;;;;;;;4.55;3.22;;;;;;;25.11;53.54;96840.38;5012069;28;20040;-81
2021/07/26 07:17:12;;;;;;;3.95;3.50;;;;;;;25.09;55.50;96847.16;5028593;28;20033;-82
2021/07/26 07:19:42;;;;;;;5.35;3.35;;;;;;;25.23;54.57;96847.47;5013867;28;20075;-82
2021/07/26 07:22:08;;;;;;;3.65;2.95;;;;;;;25.32;54.15;96860.63;5028977;28;20128;-81
2021/07/26 07:24:33;;;;;;;3.80;3.40;;;;;;;25.34;54.75;96853.06;5027830;28;20147;-81
2021/07/26 07:26:59;;;;;;;3.92;2.95;;;;;;;25.57;54.12;96867.25;5021133;28;20053;-82
2021/07/26 07:29:24;;;;;;;3.60;3.25;;;;;;;25.63;54.60;96870.41;5027228;28;20041;-81
2021/07/26 07:31:50;;;;;;;3.58;3.28;;;;;;;25.91;53.67;96872.09;5011557;28;20026;-82
2021/07/26 07:34:15;;;;;;;5.22;3.95;;;;;;;26.08;52.59;96869.03;5028961;28;20057;-81
2021/07/26 07:36:42;;;;;;;3.88;3.00;;;;;;;26.20;51.72;96878.78;5012283;28;20065;-80
2021/07/26 07:39:08;;;;;;;3.95;3.55;;;;;;;26.05;53.32;96874.31;5013263;28;20380;-81
2021/07/26 07:41:34;;;;;;;3.80;3.40;;;;;;;26.15;52.15;96871.06;5023883;28;20029;-81
2021/07/26 07:44:00;;;;;;;3.47;3.10;;;;;;;26.31;51.14;96874.38;5032248;28;20056;-81
2021/07/26 07:46:26;;;;;;;4.95;3.50;;;;;;;26.42;50.13;96873.78;5022866;28;20461;-81
2021/07/26 07:48:51;;;;;;;3.80;3.50;;;;;;;26.64;49.59;96883.72;5021921;28;20049;-81
2021/07/26 07:51:18;;;;;;;3.42;2.72;;;;;;;26.77;51.30;96888.88;4984694;28;20036;-81
2021/07/26 07:53:43;;;;;;;3.55;3.00;;;;;;;26.79;50.73;96889.31;5025225;28;20033;-81
2021/07/26 07:56:09;;;;;;;4.20;3.42;;;;;;;26.52;51.61;96881.22;5023177;28;20038;-80
2021/07/26 07:58:35;;;;;;;4.70;3.33;;;;;;;26.61;52.48;96886.31;5034036;28;20026;-82
2021/07/26 08:01:01;;;;;;;4.43;4.03;;;;;;;26.89;52.46;96883.38;5010551;28;20076;-81
2021/07/26 08:03:27;;;;;;;3.50;3.20;;;;;;;27.24;49.65;96887.69;5030713;28;20068;-81
2021/07/26 08:05:52;;;;;;;4.18;3.60;;;;;;;27.21;49.77;96885.72;5029837;28;20187;-81
2021/07/26 08:08:19;;;;;;;3.60;3.30;;;;;;;26.95;50.52;96887.25;5033110;28;20476;-82
2021/07/26 08:10:45;;;;;;;3.83;3.33;;;;;;;26.94;49.95;96892.97;5033374;28;20261;-83
2021/07/26 08:13:11;;;;;;;3.92;3.13;;;;;;;27.15;50.29;96895.97;5032058;28;20029;-81
2021/07/26 08:15:36;;;;;;;4.32;3.88;;;;;;;27.33;50.56;96904.25;5026271;28;20032;-81
2021/07/26 08:18:02;;;;;;;3.65;3.22;;;;;;;27.24;50.06;96898.38;5015703;28;20049;-82
2021/07/26 08:20:28;;;;;;;4.10;3.20;;;;;;;27.42;48.85;96902.09;5032318;28;20034;-81
2021/07/26 08:22:53;;;;;;;3.45;3.15;;;;;;;27.33;49.23;96906.16;5015196;28;20864;-81
2021/07/26 08:25:19;;;;;;;4.03;3.25;;;;;;;27.12;50.82;96910.03;5026314;28;20466;-81
2021/07/26 08:27:56;;;;;;;3.58;3.28;;;;;;;26.96;50.35;96901.41;5024201;28;20018;-81
2021/07/26 08:30:25;;;;;;;5.55;3.55;;;;;;;27.39;48.76;96908.16;4996332;28;20030;-80
2021/07/26 08:32:52;;;;;;;3.75;3.40;;;;;;;27.49;50.31;96903.31;5013406;28;20508;-81
2021/07/26 08:35:18;;;;;;;6.75;3.72;;;;;;;27.57;50.39;96904.94;5027558;28;20753;-81
2021/07/26 08:37:43;;;;;;;3.40;3.10;;;;;;;27.73;49.21;96902.88;5033891;28;20030;-80
2021/07/26 08:40:10;;;;;;;3.13;2.83;;;;;;;28.09;47.05;96907.91;5031904;28;20025;-81
2021/07/26 08:42:35;;;;;;;4.47;3.33;;;;;;;28.30;46.69;96891.28;5012235;28;20033;-81
2021/07/26 08:45:01;;;;;;;3.42;3.13;;;;;;;28.22;47.15;96895.78;5009827;28;20512;-80
2021/07/26 08:47:27;;;;;;;3.35;2.67;;;;;;;27.68;45.73;96889.06;5041008;28;20499;-80
2021/07/26 08:49:57;;;;;;;3.85;2.63;;;;;;;27.75;47.48;96899.84;5015424;28;20033;-80
2021/07/26 08:52:25;;;;;;;3.45;2.97;;;;;;;27.63;49.36;96903.50;5026497;28;20061;-80
2021/07/26 08:54:51;;;;;;;3.53;2.95;;;;;;;27.67;48.40;96909.66;5025343;28;20084;-80
2021/07/26 08:57:17;;;;;;;4.05;3.00;;;;;;;27.61;48.48;96913.81;5013557;28;20113;-80
2021/07/26 08:59:43;;;;;;;3.55;3.10;;;;;;;27.14;49.22;96920.38;5022208;28;20543;-81
2021/07/26 09:02:08;;;;;;;2.60;2.25;;;;;;;27.24;49.88;96917.09;5014556;28;20037;-80
2021/07/26 09:04:34;;;;;;;3.90;3.05;;;;;;;26.98;50.17;96915.94;5030668;28;20514;-81
2021/07/26 09:07:05;;;;;;;3.58;3.25;;;;;;;26.89;49.49;96915.44;5023914;28;20421;-80
2021/07/26 09:10:00;;;;;;;3.63;3.15;;;;;;;26.53;51.88;96912.13;5030523;28;20048;-80
2021/07/26 09:12:33;;;;;;;3.55;3.25;;;;;;;26.59;50.66;96908.03;5010236;28;20041;-80
2021/07/26 09:15:03;;;;;;;3.65;3.17;;;;;;;26.58;50.26;96914.50;5027735;28;20034;-80
2021/07/26 09:17:39;;;;;;;3.15;2.88;;;;;;;26.61;50.80;96907.69;5000708;28;20108;-80
2021/07/26 09:20:06;;;;;;;3.10;2.88;;;;;;;26.77;50.31;96915.59;5029423;28;20032;-80
2021/07/26 09:22:36;;;;;;;3.58;3.00;;;;;;;26.50;51.53;96902.94;5040605;28;20033;-80
2021/07/26 09:25:21;;;;;;;3.95;3.20;;;;;;;26.23;52.12;96912.75;5022321;28;20533;-80
2021/07/26 09:28:06;;;;;;;3.45;3.20;;;;;;;26.30;52.50;96904.88;5047593;28;20026;-80
2021/07/26 09:30:42;;;;;;;3.38;3.08;;;;;;;26.32;52.06;96909.84;5014063;28;20041;-80
2021/07/26 09:33:14;;;;;;;3.50;3.20;;;;;;;26.13;55.18;96918.66;5015914;28;20060;-80
2021/07/26 09:35:40;;;;;;;3.35;3.05;;;;;;;26.20;53.46;96908.13;5028548;28;20030;-79
2021/07/26 09:38:05;;;;;;;3.88;2.97;;;;;;;26.19;51.80;96900.47;5030908;28;20025;-79
2021/07/26 09:40:33;;;;;;;4.47;3.63;;;;;;;26.55;50.83;96901.88;5032442;28;20041;-79
2021/07/26 09:43:24;;;;;;;5.03;3.10;;;;;;;26.97;51.01;96898.34;5028156;28;20052;-79
2021/07/26 09:45:51;;;;;;;3.20;2.90;;;;;;;27.58;49.08;96906.50;5020988;28;20065;-80
2021/07/26 09:48:18;;;;;;;3.25;2.97;;;;;;;27.62;48.00;96897.41;4996363;28;20032;-80
2021/07/26 09:50:48;;;;;;;3.60;3.30;;;;;;;27.73;51.28;96902.09;4978133;28;20037;-79
2021/07/26 09:53:15;;;;;;;3.45;2.75;;;;;;;27.66;45.85;96886.75;5011179;28;20605;-80
2021/07/26 09:55:43;;;;;;;3.63;3.33;;;;;;;27.58;46.64;96901.91;5030819;28;20115;-79
2021/07/26 09:58:10;;;;;;;3.70;2.63;;;;;;;27.32;47.56;96902.72;5031370;28;20030;-79
2021/07/26 10:00:37;;;;;;;3.40;2.30;;;;;;;27.27;47.48;96906.44;5027354;28;20025;-79
2021/07/26 10:03:08;;;;;;;4.15;3.03;;;;;;;27.05;47.95;96912.59;5012881;28;20539;-79
2021/07/26 10:05:35;;;;;;;2.83;2.63;;;;;;;26.89;49.35;96915.44;5008422;28;20038;-79
2021/07/26 10:08:04;;;;;;;2.85;2.55;;;;;;;26.81;50.11;96911.09;5024020;28;20021;-79
2021/07/26 10:10:34;;;;;;;3.30;3.00;;;;;;;26.79;50.28;96913.34;5011443;28;20044;-80
2021/07/26 10:13:00;;;;;;;3.40;3.10;;;;;;;27.00;50.10;96902.22;5020479;28;20056;-79
2021/07/26 10:15:26;;;;;;;3.17;2.63;;;;;;;27.37;46.00;96907.00;5028836;28;20647;-79
2021/07/26 10:17:52;;;;;;;3.95;2.95;;;;;;;27.20;48.04;96916.28;5030436;28;20030;-79
2021/07/26 10:20:39;;;;;;;4.07;2.70;;;;;;;26.74;50.80;96916.31;5023998;28;20579;-80
2021/07/26 10:23:20;;;;;;;3.00;2.70;;;;;;;26.81;51.04;96901.16;5026712;28;20044;-80
2021/07/26 10:25:53;;;;;;;3.67;2.88;;;;;;;27.26;44.56;96902.25;5054294;28;20051;-79
2021/07/26 10:28:26;;;;;;;3.03;2.83;;;;;;;27.64;43.83;96900.47;5012891;28;20029;-79
2021/07/26 10:30:52;;;;;;;2.57;2.37;;;;;;;27.93;45.58;96908.09;4994722;28;20022;-79
2021/07/26 10:33:17;;;;;;;2.97;2.58;;;;;;;28.09;46.67;96911.34;5025165;28;20615;-79
2021/07/26 10:35:53;;;;;;;3.30;2.45;;;;;;;27.87;47.58;96906.84;5022163;28;20044;-80
2021/07/26 10:38:44;;;;;;;4.50;3.30;;;;;;;27.87;46.62;96912.22;4995787;28;20362;-79
2021/07/26 10:41:09;;;;;;;3.22;2.95;;;;;;;27.73;45.50;96910.91;5027557;28;20074;-80
2021/07/26 10:44:00;;;;;;;3.50;3.08;;;;;;;27.30;45.44;96913.00;4995058;28;20057;-80
2021/07/26 10:46:25;;;;;;;3.38;3.05;;;;;;;27.30;46.36;96917.56;5003499;28;20358;-78
2021/07/26 10:48:51;;;;;;;3.63;2.70;;;;;;;27.12;47.26;96910.03;4999477;28;20030;-79
2021/07/26 10:51:37;;;;;;;3.55;3.10;;;;;;;27.26;46.87;96920.16;4982522;28;20029;-79
2021/07/26 10:54:04;;;;;;;3.42;3.10;;;;;;;27.87;48.28;96912.22;5020168;28;20033;-79
2021/07/26 10:57:01;;;;;;;3.20;2.85;;;;;;;27.84;44.65;96911.00;4993260;28;20424;-79
2021/07/26 10:59:27;;;;;;;2.85;2.60;;;;;;;28.30;43.04;96908.09;5018846;28;20065;-79
2021/07/26 11:02:03;;;;;;;3.63;3.10;;;;;;;27.82;44.60;96900.66;5024254;28;20061;-79
2021/07/26 11:04:32;;;;;;;3.67;3.08;;;;;;;27.89;45.85;96907.25;5004684;28;20042;-79
2021/07/26 11:06:59;;;;;;;2.92;2.60;;;;;;;27.49;48.05;96903.31;5028439;28;20068;-79
2021/07/26 11:09:26;;;;;;;3.58;3.28;;;;;;;27.63;45.95;96903.50;5028803;28;20135;-79
2021/07/26 11:11:52;;;;;;;2.97;2.78;;;;;;;27.40;48.19;96887.53;5025270;28;20084;-79
2021/07/26 11:14:18;;;;;;;4.47;3.05;;;;;;;27.44;47.59;96891.03;4992953;28;20073;-79
2021/07/26 11:19:40;;;;;;;3.58;2.55;;;;;;;27.64;44.13;96889.78;5028608;28;20022;-79
2021/07/26 11:22:17;;;;;;;3.90;2.70;;;;;;;27.82;45.29;96895.31;5025695;28;20037;-79
2021/07/26 11:24:48;;;;;;;3.42;2.67;;;;;;;27.65;43.33;96893.22;5012296;28;20037;-79
2021/07/26 11:27:15;;;;;;;3.25;2.95;;;;;;;27.68;44.41;96889.06;5029094;28;20462;-79
2021/07/26 11:29:45;;;;;;;3.90;2.78;;;;;;;27.75;44.60;96892.56;5029127;28;20043;-78
2021/07/26 11:32:15;;;;;;;3.58;3.00;;;;;;;27.80;45.49;96881.53;5007344;28;20121;-78
2021/07/26 11:34:41;;;;;;;3.15;2.85;;;;;;;27.70;44.46;96884.88;5032590;28;20038;-79
2021/07/26 11:37:08;;;;;;;3.60;3.10;;;;;;;27.57;44.87;96889.69;5025215;28;20041;-79